Time;durP1;ratioP1;P1;durP2;ratioP2;P2;SDS_P1;SDS_P2;PMS_P1;PMS_P2;Temp;Humidity;BMP_temperature;BMP_pressure;BME280_temperature;BME280_humidity;BME280_pressure;Samples;Min_cycle;Max_cycle;Signal;HPM_P1;HPM_P2
2023/11/01 00:01:23;;;;;;;0.00;0.00;;;;;;;10.87;100.00;100264.03;5113660;28;20031;-40
2023/11/01 00:03:48;;;;;;;0.00;0.00;;;;;;;10.86;100.00;100262.38;5113435;28;20040;-39
2023/11/01 00:06:13;;;;;;;0.00;0.00;;;;;;;10.90;100.00;100261.78;5113182;28;20082;-39
2023/11/01 00:08:39;;;;;;;0.00;0.00;;;;;;;10.86;100.00;100251.59;5112974;28;20120;-40
2023/11/01 00:11:04;;;;;;;0.00;0.00;;;;;;;10.86;100.00;100244.34;5113164;28;20048;-40
2023/11/01 00:13:30;;;;;;;0.00;0.00;;;;;;;10.85;100.00;100239.16;5113093;28;20390;-40
2023/11/01 00:15:55;;;;;;;0.00;0.00;;;;;;;10.84;100.00;100246.41;5112795;28;20027;-39
2023/11/01 00:18:21;;;;;;;0.00;0.00;;;;;;;10.84;100.00;100237.50;5112538;28;20067;-39
2023/11/01 00:20:46;;;;;;;0.00;0.00;;;;;;;10.89;100.00;100237.75;5112187;28;20035;-38
2023/11/01 00:23:11;;;;;;;0.00;0.00;;;;;;;10.88;100.00;100236.09;5112738;28;20030;-38
2023/11/01 00:25:37;;;;;;;0.00;0.00;;;;;;;10.84;100.00;100245.56;5095553;28;20032;-39
2023/11/01 00:28:02;;;;;;;0.00;0.00;;;;;;;10.86;100.00;100230.06;5097958;27;20470;-41
2023/11/01 00:30:28;;;;;;;0.00;0.00;;;;;;;10.85;100.00;100244.53;5112214;28;20470;-40
2023/11/01 00:32:55;;;;;;;0.00;0.00;;;;;;;10.85;100.00;100242.69;5112510;28;20020;-40
2023/11/01 00:35:20;;;;;;;0.00;0.00;;;;;;;10.86;100.00;100240.84;5112930;28;20494;-39
2023/11/01 00:37:46;;;;;;;0.00;0.00;;;;;;;10.85;100.00;100242.69;5112693;28;20094;-39
2023/11/01 00:40:11;;;;;;;0.00;0.00;;;;;;;10.84;100.00;100237.50;5112460;28;20023;-39
2023/11/01 00:42:37;;;;;;;0.00;0.00;;;;;;;10.86;100.00;100235.44;5112757;28;20390;-39
2023/11/01 00:45:04;;;;;;;0.00;0.00;;;;;;;10.88;100.00;100238.78;5112433;28;20061;-40
2023/11/01 00:47:29;;;;;;;0.00;0.00;;;;;;;10.87;100.00;100237.94;5112513;28;20035;-39
2023/11/01 00:49:54;;;;;;;0.00;0.00;;;;;;;10.90;100.00;100234.00;5113904;28;20023;-41
2023/11/01 00:52:20;;;;;;;0.00;0.00;;;;;;;10.89;100.00;100235.88;5115056;28;20034;-39
2023/11/01 00:54:45;;;;;;;0.00;0.00;;;;;;;10.94;100.00;100227.22;5115392;28;20036;-41
2023/11/01 00:57:10;;;;;;;0.00;0.00;;;;;;;10.98;100.00;100218.53;5112518;28;20027;-40
2023/11/01 00:59:36;;;;;;;0.00;0.00;;;;;;;10.95;100.00;100228.84;5112176;28;20093;-40
2023/11/01 01:02:01;;;;;;;0.00;0.00;;;;;;;10.96;100.00;100225.97;5112020;28;20084;-40
2023/11/01 01:04:27;;;;;;;0.00;0.00;;;;;;;10.94;100.00;100219.94;5112089;28;20337;-39
2023/11/01 01:06:52;;;;;;;0.00;0.00;;;;;;;10.93;100.00;100215.59;5111988;28;20023;-41
2023/11/01 01:09:18;;;;;;;0.00;0.00;;;;;;;10.93;100.00;100207.53;5111944;28;20370;-39
2023/11/01 01:11:43;;;;;;;0.00;0.00;;;;;;;10.91;100.00;100196.13;5112056;28;20405;-39
2023/11/01 01:14:09;;;;;;;0.00;0.00;;;;;;;10.92;100.00;100197.78;5113211;28;20027;-40
2023/11/01 01:16:34;;;;;;;0.00;0.00;;;;;;;10.93;100.00;100188.69;5118478;28;20028;-39
2023/11/01 01:18:59;;;;;;;0.00;0.00;;;;;;;10.92;100.00;100186.19;5118952;28;20051;-40
2023/11/01 01:21:25;;;;;;;0.00;0.00;;;;;;;10.89;100.00;100183.91;5119842;28;20031;-40
2023/11/01 01:23:50;;;;;;;0.00;0.00;;;;;;;10.89;100.00;100182.03;5119199;28;20028;-40
2023/11/01 01:26:15;;;;;;;0.00;0.00;;;;;;;10.90;100.00;100177.47;5119391;28;20023;-40
2023/11/01 01:28:41;;;;;;;0.00;0.00;;;;;;;10.92;100.00;100178.94;5112575;28;20123;-41
2023/11/01 01:31:06;;;;;;;0.00;0.00;;;;;;;10.89;100.00;100170.44;5111939;28;20015;-40
2023/11/01 01:33:31;;;;;;;0.00;0.00;;;;;;;10.86;100.00;100176.22;5111947;28;20051;-40
2023/11/01 01:35:57;;;;;;;0.00;0.00;;;;;;;10.84;100.00;100170.19;5110780;28;20484;-40
2023/11/01 01:38:23;;;;;;;0.00;0.00;;;;;;;10.81;100.00;100170.59;5111533;28;20024;-40
2023/11/01 01:40:48;;;;;;;0.00;0.00;;;;;;;10.78;100.00;100163.75;5111170;28;20110;-38
2023/11/01 01:43:21;;;;;;;0.00;0.00;;;;;;;10.75;100.00;100164.16;5092746;28;20038;-39
2023/11/01 01:46:04;;;;;;;0.00;0.00;;;;;;;10.72;100.00;100159.19;5111713;28;20049;-40
2023/11/01 01:48:29;;;;;;;0.00;0.00;;;;;;;10.70;100.00;100153.16;5111601;28;20106;-39
2023/11/01 01:50:55;;;;;;;0.00;0.00;;;;;;;10.68;100.00;100147.16;5111585;28;20103;-41
2023/11/01 01:53:20;;;;;;;0.00;0.00;;;;;;;10.67;100.00;100135.56;5110835;28;20032;-40
2023/11/01 01:55:46;;;;;;;0.00;0.00;;;;;;;10.65;100.00;100129.53;5111123;28;20028;-39
2023/11/01 01:58:12;;;;;;;0.00;0.00;;;;;;;10.67;100.00;100129.34;5110867;28;20023;-39
2023/11/01 02:00:37;;;;;;;0.00;0.00;;;;;;;10.65;100.00;100121.47;5111035;28;20580;-41
2023/11/01 02:03:03;;;;;;;0.00;0.00;;;;;;;10.65;100.00;100120.66;5092916;28;20451;-40
2023/11/01 02:05:29;;;;;;;0.00;0.00;;;;;;;10.62;100.00;100116.50;5111523;28;20028;-39
2023/11/01 02:07:54;;;;;;;0.00;0.00;;;;;;;10.61;100.00;100114.84;5110462;28;20039;-39
2023/11/01 02:10:20;;;;;;;0.00;0.00;;;;;;;10.61;100.00;100112.16;5111245;28;20027;-39
2023/11/01 02:12:45;;;;;;;0.00;0.00;;;;;;;10.63;100.00;100112.75;5111082;28;20438;-43
2023/11/01 02:15:10;;;;;;;0.00;0.00;;;;;;;10.61;100.00;100105.91;5110847;28;20838;-40
2023/11/01 02:17:36;;;;;;;0.00;0.00;;;;;;;10.64;100.00;100109.06;5110812;28;20031;-39
2023/11/01 02:20:02;;;;;;;0.00;0.00;;;;;;;10.63;100.00;100106.56;5110888;28;20458;-41
2023/11/01 02:22:28;;;;;;;0.00;0.00;;;;;;;10.62;100.00;100097.66;5110905;28;20542;-40
2023/11/01 02:24:53;;;;;;;0.00;0.00;;;;;;;10.63;100.00;100095.78;5110725;28;20028;-39
2023/11/01 02:27:18;;;;;;;0.00;0.00;;;;;;;10.61;100.00;100101.38;5093025;28;20429;-40
2023/11/01 02:29:44;;;;;;;0.00;0.00;;;;;;;10.62;100.00;100084.19;5110543;28;20028;-41
2023/11/01 02:32:09;;;;;;;0.00;0.00;;;;;;;10.61;100.00;100087.94;5110513;28;20026;-39
2023/11/01 02:34:35;;;;;;;0.00;0.00;;;;;;;10.63;100.00;100082.34;5110378;28;20027;-39
2023/11/01 02:37:01;;;;;;;0.00;0.00;;;;;;;10.61;100.00;100087.94;5110007;28;20106;-40
2023/11/01 02:39:26;;;;;;;0.00;0.00;;;;;;;10.64;100.00;100086.69;5110711;28;20027;-40
2023/11/01 02:41:52;;;;;;;0.00;0.00;;;;;;;10.64;100.00;100071.38;5111118;28;20023;-39
2023/11/01 02:44:17;;;;;;;0.00;0.00;;;;;;;10.64;100.00;100070.56;5111072;28;20114;-39
2023/11/01 02:46:42;;;;;;;0.00;0.00;;;;;;;10.62;100.00;100061.84;5111258;28;20020;-40
2023/11/01 02:49:08;;;;;;;0.00;0.00;;;;;;;10.66;100.00;100069.28;5110812;28;20080;-41
2023/11/01 02:51:33;;;;;;;0.00;0.00;;;;;;;10.64;100.00;100062.47;5110942;28;20054;-39
2023/11/01 02:53:58;;;;;;;0.00;0.00;;;;;;;10.62;100.00;100057.28;5112948;28;20363;-41
2023/11/01 02:56:24;;;;;;;0.00;0.00;;;;;;;10.61;100.00;100063.72;5116510;28;20447;-40
2023/11/01 02:58:49;;;;;;;0.00;0.00;;;;;;;10.61;100.00;100055.66;5120058;28;20088;-40
2023/11/01 03:01:16;;;;;;;0.00;0.00;;;;;;;10.63;100.00;100047.34;5121752;28;20060;-41
2023/11/01 03:03:42;;;;;;;0.00;0.00;;;;;;;10.65;100.00;100056.06;5121654;28;20044;-41
2023/11/01 03:06:07;;;;;;;0.00;0.00;;;;;;;10.65;100.00;100056.06;5118934;28;20038;-39
2023/11/01 03:08:33;;;;;;;0.00;0.00;;;;;;;10.66;100.00;100053.16;5114268;28;20050;-41
2023/11/01 03:10:58;;;;;;;0.00;0.00;;;;;;;10.65;100.00;100051.50;5114808;28;20027;-40
2023/11/01 03:13:23;;;;;;;0.00;0.00;;;;;;;10.66;100.00;100050.47;5114898;28;20081;-39
2023/11/01 03:15:49;;;;;;;0.00;0.00;;;;;;;10.64;100.00;100049.03;5115875;28;20055;-40
2023/11/01 03:18:14;;;;;;;0.00;0.00;;;;;;;10.66;100.00;100047.75;5115505;28;20084;-40
2023/11/01 03:20:39;;;;;;;0.00;0.00;;;;;;;10.67;100.00;100038.69;5105725;28;20035;-41
2023/11/01 03:23:05;;;;;;;0.00;0.00;;;;;;;10.66;100.00;100037.00;5115670;28;20087;-41
2023/11/01 03:25:30;;;;;;;0.00;0.00;;;;;;;10.69;100.00;100033.94;5119176;28;20384;-41
2023/11/01 03:27:55;;;;;;;0.00;0.00;;;;;;;10.68;100.00;100029.56;5117973;28;20028;-41
2023/11/01 03:30:22;;;;;;;0.00;0.00;;;;;;;10.70;100.00;100022.13;5117461;28;20023;-40
2023/11/01 03:32:48;;;;;;;0.00;0.00;;;;;;;10.74;100.00;100022.53;5115803;28;20039;-40
2023/11/01 03:35:14;;;;;;;0.00;0.00;;;;;;;10.79;100.00;100019.25;5117217;28;20366;-40
2023/11/01 03:37:40;;;;;;;0.00;0.00;;;;;;;10.72;100.00;100017.38;5118638;28;20031;-41
2023/11/01 03:40:06;;;;;;;0.00;0.00;;;;;;;10.76;100.00;100013.22;5119252;28;20035;-43
2023/11/01 03:42:32;;;;;;;0.00;0.00;;;;;;;10.76;100.00;100007.03;5119127;27;20115;-41
2023/11/01 03:44:57;;;;;;;0.00;0.00;;;;;;;10.75;100.00;100008.88;5116509;28;20055;-39
2023/11/01 03:47:22;;;;;;;0.00;0.00;;;;;;;10.72;100.00;100008.47;5115010;28;20034;-40
2023/11/01 03:49:48;;;;;;;0.00;0.00;;;;;;;10.72;100.00;100009.31;5114746;28;20462;-40
2023/11/01 03:52:13;;;;;;;0.00;0.00;;;;;;;10.74;100.00;100009.94;5114592;28;20080;-41
2023/11/01 03:54:38;;;;;;;0.00;0.00;;;;;;;10.73;100.00;100000.19;5113900;28;20090;-40
2023/11/01 03:57:04;;;;;;;0.00;0.00;;;;;;;10.72;100.00;100001.22;5114513;28;20038;-40
2023/11/01 03:59:33;;;;;;;0.00;0.00;;;;;;;10.76;100.00;99993.56;5114124;28;20028;-42
2023/11/01 04:01:58;;;;;;;0.00;0.00;;;;;;;10.74;100.00;100001.84;5114001;28;20313;-39
2023/11/01 04:04:24;;;;;;;0.00;0.00;;;;;;;10.72;100.00;99993.16;5114380;28;20370;-39
2023/11/01 04:06:49;;;;;;;0.00;0.00;;;;;;;10.77;100.00;99995.25;5116130;28;20023;-38
2023/11/01 04:09:15;;;;;;;0.00;0.00;;;;;;;10.79;100.00;99995.03;5115595;28;20042;-38
2023/11/01 04:11:41;;;;;;;0.00;0.00;;;;;;;10.81;100.00;99992.97;5114044;28;20048;-40
2023/11/01 04:14:06;;;;;;;0.00;0.00;;;;;;;10.79;100.00;99995.03;5115965;28;20153;-38
2023/11/01 04:16:32;;;;;;;0.00;0.00;;;;;;;10.77;100.00;99993.38;5119981;28;20137;-41
2023/11/01 04:18:57;;;;;;;0.00;0.00;;;;;;;10.81;100.00;99995.66;5116671;28;20027;-39
2023/11/01 04:21:23;;;;;;;0.00;0.00;;;;;;;10.79;100.00;99992.31;5112627;28;20023;-40
2023/11/01 04:23:49;;;;;;;0.00;0.00;;;;;;;10.77;100.00;99988.00;5094131;28;20447;-39
2023/11/01 04:26:15;;;;;;;0.00;0.00;;;;;;;10.80;100.00;99994.00;5112679;28;20493;-39
2023/11/01 04:28:40;;;;;;;0.00;0.00;;;;;;;10.81;100.00;99979.50;5093990;28;20132;-39
2023/11/01 04:31:06;;;;;;;0.00;0.00;;;;;;;10.86;100.00;99987.78;5110984;28;20142;-40
2023/11/01 04:33:31;;;;;;;0.00;0.00;;;;;;;10.88;100.00;99985.72;5111179;28;20081;-39
2023/11/01 04:35:57;;;;;;;0.00;0.00;;;;;;;10.89;100.00;99987.38;5111401;28;20032;-40
2023/11/01 04:38:22;;;;;;;0.00;0.00;;;;;;;10.93;100.00;99984.06;5117538;28;20027;-39
2023/11/01 04:40:49;;;;;;;0.00;0.00;;;;;;;10.94;100.00;99990.28;5119238;28;20051;-39
2023/11/01 04:43:15;;;;;;;0.00;0.00;;;;;;;10.96;100.00;99983.66;5119241;28;20080;-40
2023/11/01 04:45:40;;;;;;;0.00;0.00;;;;;;;11.00;100.00;99989.47;5118355;28;20055;-41
2023/11/01 04:48:06;;;;;;;0.00;0.00;;;;;;;11.00;100.00;99984.06;5118200;28;20027;-39
2023/11/01 04:50:31;;;;;;;0.00;0.00;;;;;;;11.01;100.00;99985.75;5114548;28;20134;-41
2023/11/01 04:52:57;;;;;;;0.00;0.00;;;;;;;11.01;100.00;99969.59;5110148;28;20042;-44
2023/11/01 04:55:22;;;;;;;0.00;0.00;;;;;;;11.02;100.00;99968.53;5091810;28;20027;-41
2023/11/01 04:57:49;;;;;;;0.00;0.00;;;;;;;11.05;100.00;99970.00;5111246;28;20043;-40
2023/11/01 05:00:17;;;;;;;0.00;0.00;;;;;;;11.06;100.00;99972.50;5111207;28;20038;-43
2023/11/01 05:02:45;;;;;;;0.00;0.00;;;;;;;11.08;100.00;99967.72;5106254;28;20051;-43
2023/11/01 05:05:11;;;;;;;0.00;0.00;;;;;;;11.13;100.00;99961.72;5111105;28;20434;-43
2023/11/01 05:07:38;;;;;;;0.00;0.00;;;;;;;11.16;100.00;99962.16;5109799;28;20024;-43
2023/11/01 05:10:03;;;;;;;0.00;0.00;;;;;;;11.19;100.00;99964.41;5109517;28;20080;-44
2023/11/01 05:12:29;;;;;;;0.00;0.00;;;;;;;11.23;100.00;99962.13;5109103;28;20112;-42
2023/11/01 05:14:54;;;;;;;0.00;0.00;;;;;;;11.27;100.00;99962.53;5109244;28;20035;-41
2023/11/01 05:17:20;;;;;;;0.00;0.00;;;;;;;11.30;100.00;99959.44;5109104;28;20071;-42
2023/11/01 05:19:46;;;;;;;0.00;0.00;;;;;;;11.32;100.00;99960.03;5107709;28;20042;-44
2023/11/01 05:22:11;;;;;;;0.00;0.00;;;;;;;11.35;100.00;99955.09;5107505;28;20594;-46
2023/11/01 05:24:37;;;;;;;0.00;0.00;;;;;;;11.38;100.00;99951.16;5108649;28;20023;-46
2023/11/01 05:27:02;;;;;;;0.00;0.00;;;;;;;11.44;100.00;99950.28;5108956;28;20031;-43
2023/11/01 05:29:28;;;;;;;0.00;0.00;;;;;;;11.43;100.00;99951.34;5108442;28;20030;-43
2023/11/01 05:31:55;;;;;;;0.00;0.00;;;;;;;11.45;100.00;99954.63;5101740;28;20027;-43
2023/11/01 05:34:21;;;;;;;0.00;0.00;;;;;;;11.48;100.00;99953.38;5108809;28;20461;-41
2023/11/01 05:36:46;;;;;;;0.00;0.00;;;;;;;11.46;100.00;99952.78;5109187;28;20058;-41
2023/11/01 05:39:11;;;;;;;0.00;0.00;;;;;;;11.47;100.00;99943.66;5109118;28;20466;-40
2023/11/01 05:41:37;;;;;;;0.00;0.00;;;;;;;11.50;100.00;99951.31;5108994;28;20675;-39
2023/11/01 05:44:02;;;;;;;0.00;0.00;;;;;;;11.49;100.00;99945.13;5108773;28;20023;-42
2023/11/01 05:46:27;;;;;;;0.00;0.00;;;;;;;11.49;100.00;99950.50;5108197;28;20046;-45
2023/11/01 05:48:53;;;;;;;0.00;0.00;;;;;;;11.49;100.00;99942.41;5108712;28;20027;-46
2023/11/01 05:51:18;;;;;;;0.00;0.00;;;;;;;11.48;100.00;99943.47;5106662;28;20108;-45
2023/11/01 05:53:46;;;;;;;0.00;0.00;;;;;;;11.49;100.00;99942.41;5108364;28;20030;-45
2023/11/01 05:56:11;;;;;;;0.00;0.00;;;;;;;11.45;100.00;99938.47;5110597;28;20024;-44
2023/11/01 05:58:38;;;;;;;0.00;0.00;;;;;;;11.45;100.00;99933.09;5110409;28;20343;-41
2023/11/01 06:01:03;;;;;;;0.00;0.00;;;;;;;11.43;100.00;99935.19;5107440;28;20098;-40
2023/11/01 06:03:29;;;;;;;0.00;0.00;;;;;;;11.43;100.00;99940.56;5118911;28;20131;-42
2023/11/01 06:05:57;;;;;;;0.00;0.00;;;;;;;11.43;100.00;99935.19;5111550;28;20028;-39
2023/11/01 06:08:23;;;;;;;0.00;0.00;;;;;;;11.46;100.00;99933.94;5111441;28;20033;-39
2023/11/01 06:10:49;;;;;;;0.00;0.00;;;;;;;11.43;100.00;99932.50;5111466;28;20030;-39
2023/11/01 06:13:14;;;;;;;0.00;0.00;;;;;;;11.45;100.00;99933.09;5109875;28;20137;-40
2023/11/01 06:15:39;;;;;;;0.00;0.00;;;;;;;11.46;100.00;99934.75;5110671;28;20034;-40
2023/11/01 06:18:05;;;;;;;0.00;0.00;;;;;;;11.42;100.00;99933.50;5110693;28;20065;-38
2023/11/01 06:20:34;;;;;;;0.00;0.00;;;;;;;11.41;100.00;99927.28;5111685;28;20035;-38
2023/11/01 06:23:00;;;;;;;0.00;0.00;;;;;;;11.41;100.00;99932.69;5112152;28;20031;-40
2023/11/01 06:25:25;;;;;;;0.00;0.00;;;;;;;11.39;100.00;99929.38;5112918;28;20085;-39
2023/11/01 06:27:51;;;;;;;0.00;0.00;;;;;;;11.40;100.00;99919.41;5092254;28;20098;-38
2023/11/01 06:30:16;;;;;;;0.00;0.00;;;;;;;11.38;100.00;99921.50;5118489;27;20027;-39
2023/11/01 06:32:42;;;;;;;0.00;0.00;;;;;;;11.41;100.00;99918.41;5114671;28;20454;-40
2023/11/01 06:35:08;;;;;;;0.00;0.00;;;;;;;11.37;100.00;99909.91;5113718;27;20115;-38
2023/11/01 06:37:33;;;;;;;0.00;0.00;;;;;;;11.41;100.00;99915.69;5113796;28;20031;-39
2023/11/01 06:39:59;;;;;;;0.10;0.00;;;;;;;11.42;100.00;99914.66;5108616;28;20039;-40
2023/11/01 06:42:24;;;;;;;0.00;0.00;;;;;;;11.41;100.00;99913.81;5106488;28;20062;-38
2023/11/01 06:44:49;;;;;;;0.00;0.00;;;;;;;11.39;100.00;99907.00;5115038;28;20036;-37
2023/11/01 06:47:15;;;;;;;0.00;0.00;;;;;;;11.40;100.00;99916.72;5113678;28;20032;-39
2023/11/01 06:49:40;;;;;;;0.00;0.00;;;;;;;11.39;100.00;99913.19;5110850;28;20165;-39
2023/11/01 06:52:06;;;;;;;0.00;0.00;;;;;;;11.42;100.00;99915.47;5114990;28;20023;-39
2023/11/01 06:54:32;;;;;;;0.00;0.00;;;;;;;11.41;100.00;99915.69;5114184;28;20102;-39
2023/11/01 06:56:57;;;;;;;0.00;0.00;;;;;;;11.41;100.00;99902.22;5114213;28;20599;-39
2023/11/01 06:59:23;;;;;;;0.00;0.00;;;;;;;11.41;100.00;99900.34;5113847;28;20062;-39
2023/11/01 07:01:48;;;;;;;0.00;0.00;;;;;;;11.42;100.00;99901.19;5113024;28;20024;-38
2023/11/01 07:04:14;;;;;;;0.00;0.00;;;;;;;11.49;100.00;99912.78;5115117;28;20044;-39
2023/11/01 07:06:41;;;;;;;0.00;0.00;;;;;;;11.46;100.00;99913.19;5116385;28;20024;-40
2023/11/01 07:09:07;;;;;;;0.00;0.00;;;;;;;11.45;100.00;99906.13;5115408;28;20019;-38
2023/11/01 07:11:32;;;;;;;0.00;0.00;;;;;;;11.45;100.00;99902.63;5102557;28;20560;-40
2023/11/01 07:13:57;;;;;;;0.00;0.00;;;;;;;11.51;100.00;99897.22;5109993;28;20032;-39
2023/11/01 07:16:24;;;;;;;0.00;0.00;;;;;;;11.53;100.00;99903.25;5114755;28;20051;-41
2023/11/01 07:18:50;;;;;;;0.00;0.00;;;;;;;11.52;100.00;99895.34;5113862;28;20028;-39
2023/11/01 07:21:16;;;;;;;0.00;0.00;;;;;;;11.53;100.00;99895.16;5114737;28;20133;-39
2023/11/01 07:23:41;;;;;;;0.00;0.00;;;;;;;11.55;100.00;99887.66;5114568;28;20530;-39
2023/11/01 07:26:06;;;;;;;0.00;0.00;;;;;;;11.62;100.00;99896.56;5114292;28;20031;-39
2023/11/01 07:28:32;;;;;;;0.00;0.00;;;;;;;11.64;100.00;99894.50;5113918;28;20077;-39
2023/11/01 07:30:57;;;;;;;0.00;0.00;;;;;;;11.70;100.00;99882.03;5105645;27;20516;-42
2023/11/01 07:33:22;;;;;;;0.00;0.00;;;;;;;11.73;100.00;99888.88;5099580;28;20026;-39
2023/11/01 07:35:48;;;;;;;0.00;0.00;;;;;;;11.72;100.00;99892.63;5113415;28;20076;-39
2023/11/01 07:38:13;;;;;;;0.00;0.00;;;;;;;11.77;100.00;99882.84;5135371;27;20038;-40
2023/11/01 07:40:39;;;;;;;0.00;0.00;;;;;;;11.77;100.00;99882.84;5132138;27;20100;-40
2023/11/01 07:43:04;;;;;;;0.00;0.00;;;;;;;11.78;100.00;99875.59;5114595;28;20031;-39
2023/11/01 07:45:30;;;;;;;0.00;0.00;;;;;;;11.80;100.00;99863.53;5111979;28;20028;-39
2023/11/01 07:47:56;;;;;;;0.00;0.00;;;;;;;11.81;100.00;99861.66;5113863;28;20053;-39
2023/11/01 07:50:21;;;;;;;0.00;0.00;;;;;;;11.85;100.00;99862.91;5113050;28;20020;-39
2023/11/01 07:52:46;;;;;;;0.00;0.00;;;;;;;11.86;100.00;99849.22;5119401;28;20462;-40
2023/11/01 07:55:12;;;;;;;0.00;0.00;;;;;;;11.91;100.00;99851.28;5122414;28;20027;-40
2023/11/01 07:57:38;;;;;;;0.00;0.00;;;;;;;11.91;100.00;99862.06;5122533;28;20078;-41
2023/11/01 08:00:05;;;;;;;0.00;0.00;;;;;;;11.90;100.00;99849.66;5121431;27;20035;-40
2023/11/01 08:02:31;;;;;;;0.00;0.00;;;;;;;11.97;100.00;99846.91;5114981;28;20052;-40
2023/11/01 08:04:57;;;;;;;0.00;0.00;;;;;;;11.93;100.00;99848.34;5096352;28;20027;-40
2023/11/01 08:07:23;;;;;;;0.00;0.00;;;;;;;11.91;100.00;99845.91;5114295;28;20016;-40
2023/11/01 08:09:48;;;;;;;0.00;0.00;;;;;;;11.90;100.00;99860.44;5113750;28;20027;-39
2023/11/01 08:12:14;;;;;;;0.00;0.00;;;;;;;11.95;100.00;99847.09;5113583;28;20024;-39
2023/11/01 08:14:39;;;;;;;0.00;0.00;;;;;;;11.96;100.00;99846.09;5095885;28;20028;-38
2023/11/01 08:17:04;;;;;;;0.00;0.00;;;;;;;12.07;100.00;99840.00;5123428;27;20031;-40
2023/11/01 08:19:30;;;;;;;0.00;0.00;;;;;;;12.10;100.00;99851.41;5125744;27;20054;-39
2023/11/01 08:21:55;;;;;;;0.00;0.00;;;;;;;12.12;100.00;99847.44;5113507;28;20049;-40
2023/11/01 08:24:21;;;;;;;0.00;0.00;;;;;;;12.14;100.00;99839.13;5113385;28;20023;-40
2023/11/01 08:26:46;;;;;;;0.00;0.00;;;;;;;12.14;100.00;99833.72;5112939;28;20389;-40
2023/11/01 08:29:11;;;;;;;0.00;0.00;;;;;;;12.24;100.00;99831.38;5112644;28;20081;-40
2023/11/01 08:31:37;;;;;;;0.00;0.00;;;;;;;12.23;100.00;99835.13;5113328;27;20508;-38
2023/11/01 08:34:02;;;;;;;0.00;0.00;;;;;;;12.28;100.00;99822.66;5113399;28;20432;-41
2023/11/01 08:36:27;;;;;;;0.00;0.00;;;;;;;12.30;100.00;99822.44;5112672;27;20119;-41
2023/11/01 08:38:53;;;;;;;0.00;0.00;;;;;;;12.37;100.00;99812.41;5112838;28;20028;-40
2023/11/01 08:41:19;;;;;;;0.00;0.00;;;;;;;12.38;100.00;99805.16;5114989;28;20039;-40
2023/11/01 08:43:44;;;;;;;0.00;0.00;;;;;;;12.52;100.00;99812.09;5115193;28;20023;-41
2023/11/01 08:46:12;;;;;;;0.00;0.00;;;;;;;12.51;100.00;99796.97;5115944;28;20020;-38
2023/11/01 08:48:37;;;;;;;0.00;0.00;;;;;;;12.60;100.00;99801.03;5113176;28;20103;-38
2023/11/01 08:51:03;;;;;;;0.00;0.00;;;;;;;12.46;100.00;99800.31;5112005;28;20529;-40
2023/11/01 08:53:29;;;;;;;0.00;0.00;;;;;;;12.48;100.00;99803.63;5112873;28;20534;-38
2023/11/01 08:55:54;;;;;;;0.00;0.00;;;;;;;12.54;100.00;99795.69;5113092;28;20016;-38
2023/11/01 08:58:20;;;;;;;0.00;0.00;;;;;;;12.54;100.00;99803.78;5112286;28;20165;-39
2023/11/01 09:00:46;;;;;;;0.00;0.00;;;;;;;12.43;100.00;99803.44;5112179;28;20292;-39
2023/11/01 09:03:11;;;;;;;0.00;0.00;;;;;;;12.42;100.00;99804.47;5112368;28;20048;-40
2023/11/01 09:05:36;;;;;;;0.00;0.00;;;;;;;12.63;100.00;99789.78;5112370;28;20034;-40
2023/11/01 09:08:02;;;;;;;0.00;0.00;;;;;;;12.58;100.00;99807.69;5112175;27;20027;-40
2023/11/01 09:10:27;;;;;;;0.00;0.00;;;;;;;12.57;100.00;99800.66;5112599;28;20024;-41
2023/11/01 09:12:52;;;;;;;0.00;0.00;;;;;;;12.58;100.00;99791.50;5114266;28;20023;-40
2023/11/01 09:15:18;;;;;;;0.00;0.00;;;;;;;12.52;100.00;99785.94;5084114;28;20480;-39
2023/11/01 09:17:43;;;;;;;0.00;0.00;;;;;;;12.51;100.00;99791.56;5111465;27;20036;-41
2023/11/01 09:20:09;;;;;;;0.00;0.00;;;;;;;12.53;100.00;99778.66;5116159;27;20065;-40
2023/11/01 09:22:34;;;;;;;0.00;0.00;;;;;;;12.59;100.00;99771.56;5112451;28;20102;-40
2023/11/01 09:25:00;;;;;;;0.00;0.00;;;;;;;12.72;100.00;99777.66;5112159;28;20023;-40
2023/11/01 09:27:26;;;;;;;0.00;0.00;;;;;;;12.82;100.00;99781.72;5108074;28;20138;-41
2023/11/01 09:29:51;;;;;;;0.00;0.00;;;;;;;12.73;100.00;99767.69;5112185;28;20035;-40
2023/11/01 09:32:17;;;;;;;0.00;0.00;;;;;;;12.76;100.00;99764.53;5115220;27;20023;-41
2023/11/01 09:34:44;;;;;;;0.00;0.00;;;;;;;12.74;100.00;99763.91;5108100;28;20355;-42
2023/11/01 09:37:09;;;;;;;0.00;0.00;;;;;;;12.81;100.00;99759.28;5119010;28;20073;-41
2023/11/01 09:39:34;;;;;;;0.00;0.00;;;;;;;12.86;100.00;99762.16;5118371;28;20039;-41
2023/11/01 09:42:04;;;;;;;0.00;0.00;;;;;;;12.89;100.00;99761.69;5117536;28;20106;-41
2023/11/01 09:44:30;;;;;;;0.00;0.00;;;;;;;12.89;100.00;99756.31;5084851;28;20028;-40
2023/11/01 09:46:56;;;;;;;0.00;0.00;;;;;;;12.85;100.00;99759.66;5111541;28;20543;-41
2023/11/01 09:49:22;;;;;;;0.00;0.00;;;;;;;12.85;100.00;99760.50;5111275;28;20046;-40
2023/11/01 09:51:47;;;;;;;0.00;0.00;;;;;;;12.82;100.00;99750.16;5111402;28;20057;-40
2023/11/01 09:54:13;;;;;;;0.00;0.00;;;;;;;12.84;100.00;99753.44;5111668;28;20027;-41
2023/11/01 09:56:43;;;;;;;0.00;0.00;;;;;;;12.79;100.00;99758.69;5111536;28;20026;-40
2023/11/01 09:59:09;;;;;;;0.00;0.00;;;;;;;12.79;100.00;99747.88;5110610;28;20039;-41
2023/11/01 10:01:36;;;;;;;0.00;0.00;;;;;;;12.79;100.00;99758.69;5112009;28;20641;-40
2023/11/01 10:04:01;;;;;;;0.00;0.00;;;;;;;12.79;100.00;99755.97;5113231;28;20127;-40
2023/11/01 10:06:28;;;;;;;0.00;0.00;;;;;;;12.69;100.00;99755.66;5117033;27;20041;-40
2023/11/01 10:08:54;;;;;;;0.00;0.00;;;;;;;12.71;100.00;99742.78;5118963;27;20031;-39
2023/11/01 10:11:20;;;;;;;0.00;0.00;;;;;;;12.80;100.00;99762.22;5123812;27;20032;-42
2023/11/01 10:13:48;;;;;;;0.00;0.00;;;;;;;12.81;100.00;99736.88;5125469;27;20028;-40
2023/11/01 10:16:14;;;;;;;0.00;0.00;;;;;;;12.93;100.00;99735.91;5103063;27;20031;-39
2023/11/01 10:18:40;;;;;;;0.00;0.00;;;;;;;12.92;100.00;99718.03;5127320;27;20034;-41
2023/11/01 10:21:06;;;;;;;0.00;0.00;;;;;;;12.95;100.00;99733.81;5128257;27;20080;-40
2023/11/01 10:23:32;;;;;;;0.00;0.00;;;;;;;13.12;100.00;99717.81;5117890;27;20123;-39
2023/11/01 10:25:57;;;;;;;0.00;0.00;;;;;;;13.24;100.00;99714.34;5105246;27;20022;-39
2023/11/01 10:28:23;;;;;;;0.00;0.00;;;;;;;13.17;100.00;99709.88;5124025;27;20038;-40
2023/11/01 10:30:49;;;;;;;0.00;0.00;;;;;;;13.35;100.00;99705.53;5113656;27;20464;-40
2023/11/01 10:33:14;;;;;;;0.00;0.00;;;;;;;13.64;100.00;99701.19;5114265;28;20019;-40
2023/11/01 10:35:40;;;;;;;0.00;0.00;;;;;;;13.75;100.00;99700.38;5113217;28;20020;-40
2023/11/01 10:38:05;;;;;;;0.00;0.00;;;;;;;13.73;100.00;99688.97;5114867;27;20035;-39
2023/11/01 10:40:31;;;;;;;0.00;0.00;;;;;;;13.78;100.00;99691.81;5114419;28;20043;-39
2023/11/01 10:43:06;;;;;;;0.00;0.00;;;;;;;13.68;100.00;99680.72;5114650;28;20419;-41
2023/11/01 10:45:31;;;;;;;0.00;0.00;;;;;;;13.64;100.00;99679.56;5128289;27;20379;-40
2023/11/01 10:47:57;;;;;;;0.00;0.00;;;;;;;13.67;100.00;99680.97;5126347;27;20027;-39
2023/11/01 10:50:23;;;;;;;0.00;0.00;;;;;;;13.46;100.00;99674.19;5104190;27;20077;-41
2023/11/01 10:52:48;;;;;;;0.00;0.00;;;;;;;13.45;100.00;99661.72;5123815;27;20036;-41
2023/11/01 10:55:20;;;;;;;0.00;0.00;;;;;;;13.38;100.00;99684.28;5118208;27;20491;-41
2023/11/01 10:57:49;;;;;;;0.00;0.00;;;;;;;13.28;100.00;99659.66;5106568;28;20024;-41
2023/11/01 11:00:41;;;;;;;0.00;0.00;;;;;;;13.18;100.00;99678.25;5113460;28;20023;-40
2023/11/01 11:03:15;;;;;;;0.00;0.00;;;;;;;13.14;100.00;99660.88;5110527;28;20044;-40
2023/11/01 11:05:42;;;;;;;0.00;0.00;;;;;;;13.21;100.00;99650.78;5088792;28;20054;-39
2023/11/01 11:08:11;;;;;;;0.00;0.00;;;;;;;13.22;100.00;99665.97;5099438;28;20409;-39
2023/11/01 11:10:39;;;;;;;0.00;0.00;;;;;;;13.19;100.00;99647.47;5112996;28;20027;-40
2023/11/01 11:13:12;;;;;;;0.00;0.00;;;;;;;13.22;100.00;99647.06;5113374;28;20031;-40
2023/11/01 11:15:47;;;;;;;0.00;0.00;;;;;;;13.28;100.00;99632.66;5121028;28;20027;-40